Time;durP1;ratioP1;P1;durP2;ratioP2;P2;SDS_P1;SDS_P2;PMS_P1;PMS_P2;Temp;Humidity;BMP_temperature;BMP_pressure;BME280_temperature;BME280_humidity;BME280_pressure;Samples;Min_cycle;Max_cycle;Signal;HPM_P1;HPM_P2
2022/06/02 00:02:21;;;;;;;7.95;6.43;;;14.40;99.90;;;;;;5008571;28;20075;-77
2022/06/02 00:05:05;;;;;;;7.13;6.43;;;14.40;99.90;;;;;;5008232;28;20032;-77
2022/06/02 00:07:57;;;;;;;7.18;6.25;;;14.40;99.90;;;;;;5007748;28;20032;-77
2022/06/02 00:10:44;;;;;;;6.45;5.53;;;14.30;99.90;;;;;;5009784;28;20033;-78
2022/06/02 00:13:29;;;;;;;8.75;5.90;;;14.40;99.90;;;;;;5009788;28;20071;-77
2022/06/02 00:16:00;;;;;;;7.07;6.05;;;14.50;99.90;;;;;;5009734;28;20406;-80
2022/06/02 00:18:54;;;;;;;7.72;6.90;;;14.50;99.90;;;;;;5009731;28;20068;-77
2022/06/02 00:21:45;;;;;;;7.47;5.97;;;14.50;99.90;;;;;;5028306;28;20026;-77
2022/06/02 00:24:39;;;;;;;8.57;6.35;;;14.30;99.90;;;;;;5029179;28;20591;-80
2022/06/02 00:27:19;;;;;;;7.20;6.43;;;14.20;99.90;;;;;;5030469;28;20398;-80
2022/06/02 00:30:00;;;;;;;6.97;6.20;;;14.10;99.90;;;;;;5029165;28;20037;-77
2022/06/02 00:32:45;;;;;;;7.45;5.97;;;14.00;99.90;;;;;;5029411;28;20030;-77
2022/06/02 00:35:20;;;;;;;8.50;6.05;;;14.00;99.90;;;;;;5029258;28;20028;-80
2022/06/02 00:37:54;;;;;;;7.82;5.88;;;14.00;99.90;;;;;;5029281;28;20026;-78
2022/06/02 00:40:22;;;;;;;11.07;6.47;;;14.10;99.90;;;;;;5029071;28;20032;-81
2022/06/02 00:43:21;;;;;;;9.15;6.15;;;14.10;99.90;;;;;;5030271;28;20104;-78
2022/06/02 00:45:55;;;;;;;9.52;6.50;;;14.10;99.90;;;;;;5030317;28;20018;-77
2022/06/02 00:48:50;;;;;;;9.55;7.40;;;14.10;99.90;;;;;;5028952;28;20129;-80
2022/06/02 00:51:23;;;;;;;9.82;7.82;;;14.00;99.90;;;;;;5005760;28;20040;-80
2022/06/02 00:57:32;;;;;;;10.43;7.93;;;13.80;99.90;;;;;;5050815;28;20095;-79
2022/06/02 01:00:12;;;;;;;10.93;8.85;;;13.70;99.90;;;;;;5027199;28;20045;-78
2022/06/02 01:02:54;;;;;;;9.75;8.70;;;13.50;99.90;;;;;;5009035;28;20045;-78
2022/06/02 01:05:43;;;;;;;22.27;10.07;;;13.50;99.90;;;;;;5010499;28;20109;-79
2022/06/02 01:08:49;;;;;;;13.30;10.07;;;13.50;99.90;;;;;;5010104;28;20045;-78
2022/06/02 01:11:50;;;;;;;12.73;9.93;;;13.40;99.90;;;;;;5010248;28;20018;-78
2022/06/02 01:14:34;;;;;;;12.25;10.35;;;13.50;99.90;;;;;;5010339;28;20572;-80
2022/06/02 01:17:16;;;;;;;12.50;10.38;;;13.50;99.90;;;;;;5012508;28;20061;-79
2022/06/02 01:19:50;;;;;;;12.82;10.93;;;13.50;99.90;;;;;;5019046;28;20025;-77
2022/06/02 01:22:45;;;;;;;16.00;12.70;;;13.50;99.90;;;;;;5032134;28;20025;-77
2022/06/02 01:25:51;;;;;;;14.70;11.60;;;13.50;99.90;;;;;;5033366;28;20387;-79
2022/06/02 01:28:45;;;;;;;11.75;10.50;;;13.50;99.90;;;;;;5031990;28;20048;-77
2022/06/02 01:31:20;;;;;;;14.27;11.60;;;13.40;99.90;;;;;;5031933;28;20432;-79
2022/06/02 01:34:03;;;;;;;14.20;11.05;;;13.50;99.90;;;;;;5033354;28;20030;-79
2022/06/02 01:36:40;;;;;;;;;;;13.50;99.90;;;;;;5033568;28;20045;-77
2022/06/02 01:39:12;;;;;;;13.88;12.20;;;13.50;99.90;;;;;;5033264;28;19905;-79
2022/06/02 01:42:12;;;;;;;20.65;14.68;;;13.50;99.90;;;;;;5033235;28;20072;-77
2022/06/02 01:44:56;;;;;;;16.58;14.23;;;13.40;99.90;;;;;;5031933;28;20036;-80
2022/06/02 01:47:35;;;;;;;19.10;14.57;;;13.40;99.90;;;;;;5033138;28;20447;-80
2022/06/02 01:50:27;;;;;;;17.52;13.63;;;13.40;99.90;;;;;;5027159;28;20025;-77
2022/06/02 01:53:39;;;;;;;15.40;11.98;;;13.40;99.90;;;;;;5013167;28;20037;-79
2022/06/02 01:56:31;;;;;;;14.25;11.68;;;13.40;99.90;;;;;;5054102;28;20025;-78
2022/06/02 01:59:19;;;;;;;15.70;12.90;;;13.40;99.90;;;;;;5013324;28;20421;-77
2022/06/02 02:01:47;;;;;;;15.35;13.48;;;13.40;99.90;;;;;;5013078;28;20026;-77
2022/06/02 02:04:49;;;;;;;18.77;13.90;;;13.40;99.90;;;;;;5013017;28;20098;-77
2022/06/02 02:07:44;;;;;;;17.40;13.50;;;13.40;99.90;;;;;;5014083;28;20113;-77
2022/06/02 02:10:52;;;;;;;18.48;15.23;;;13.40;99.90;;;;;;5019935;28;20049;-78
2022/06/02 02:13:25;;;;;;;18.42;14.00;;;13.40;99.90;;;;;;5016247;28;20114;-80
2022/06/02 02:16:21;;;;;;;15.07;13.45;;;13.40;99.90;;;;;;5012955;28;20020;-78
2022/06/02 02:19:05;;;;;;;21.38;14.85;;;13.40;99.90;;;;;;5011639;28;20495;-78
2022/06/02 02:21:46;;;;;;;18.02;14.13;;;13.50;99.90;;;;;;5011442;28;20112;-79
2022/06/02 02:24:30;;;;;;;19.88;14.85;;;13.50;99.90;;;;;;5011323;28;20022;-79
2022/06/02 02:27:19;;;;;;;17.73;15.85;;;13.60;99.90;;;;;;5011376;28;20049;-78
2022/06/02 02:30:06;;;;;;;17.33;14.73;;;13.50;99.90;;;;;;5011319;28;20128;-79
2022/06/02 02:32:40;;;;;;;18.67;14.52;;;13.60;99.90;;;;;;5011388;28;20479;-79
2022/06/02 02:35:11;;;;;;;21.67;15.85;;;13.60;99.90;;;;;;5011309;28;20022;-79
2022/06/02 02:37:59;;;;;;;18.42;16.08;;;13.70;99.90;;;;;;5011333;28;20064;-80
2022/06/02 02:40:48;;;;;;;22.95;16.50;;;13.70;99.90;;;;;;5011909;28;20483;-80
2022/06/02 02:43:25;;;;;;;23.48;17.20;;;13.70;99.90;;;;;;5011086;28;20059;-78
2022/06/02 02:46:25;;;;;;;25.05;17.38;;;13.70;99.90;;;;;;5011254;28;20026;-79
2022/06/02 02:49:19;;;;;;;29.70;17.73;;;13.70;99.90;;;;;;5012194;28;20029;-78
2022/06/02 02:52:13;;;;;;;23.00;17.60;;;13.70;99.90;;;;;;5045563;28;20162;-78
2022/06/02 02:54:57;;;;;;;22.88;18.15;;;13.60;99.90;;;;;;5030726;28;20416;-78
2022/06/02 02:57:50;;;;;;;23.75;16.98;;;13.70;99.90;;;;;;5031921;28;20052;-80
2022/06/02 03:00:20;;;;;;;;;;;13.70;99.90;;;;;;5032467;28;20025;-78
2022/06/02 03:02:51;;;;;;;26.27;16.95;;;13.70;99.90;;;;;;5030539;28;19905;-78
2022/06/02 03:05:44;;;;;;;22.50;18.75;;;13.80;99.90;;;;;;5032006;28;20432;-80
2022/06/02 03:08:31;;;;;;;;;;;13.80;99.90;;;;;;5030952;28;20059;-79
2022/06/02 03:11:10;;;;;;;23.67;17.90;;;13.80;99.90;;;;;;5031784;28;19909;-81
2022/06/02 03:13:50;;;;;;;22.27;17.40;;;13.80;99.90;;;;;;5030428;28;20024;-79
2022/06/02 03:16:17;;;;;;;23.23;17.05;;;13.70;99.90;;;;;;5030255;28;20025;-80
2022/06/02 03:18:59;;;;;;;26.92;17.35;;;13.70;99.90;;;;;;5030366;28;20112;-79
2022/06/02 03:21:31;;;;;;;28.23;19.23;;;13.70;99.90;;;;;;5011920;28;20029;-80
2022/06/02 03:24:09;;;;;;;23.52;17.25;;;13.70;99.90;;;;;;5010528;28;20075;-81
2022/06/02 03:26:57;;;;;;;27.30;17.30;;;13.70;99.90;;;;;;5010413;28;20046;-81
2022/06/02 03:29:35;;;;;;;19.30;14.73;;;13.60;99.90;;;;;;5011812;28;20038;-78
2022/06/02 03:32:15;;;;;;;25.17;15.35;;;13.60;99.90;;;;;;5010435;28;20116;-79
2022/06/02 03:34:57;;;;;;;23.38;15.88;;;13.60;99.90;;;;;;5011623;28;20025;-79
2022/06/02 03:37:45;;;;;;;21.03;15.63;;;13.60;99.90;;;;;;5026217;28;20026;-78
2022/06/02 03:40:42;;;;;;;25.02;16.67;;;13.70;99.90;;;;;;5026685;28;20406;-78
2022/06/02 03:43:24;;;;;;;23.17;15.80;;;13.60;99.90;;;;;;5010047;28;20026;-78
2022/06/02 03:46:19;;;;;;;18.20;14.00;;;13.70;99.90;;;;;;5011610;28;20029;-78
2022/06/02 03:48:50;;;;;;;25.17;15.88;;;13.70;99.90;;;;;;5026660;28;20037;-79
2022/06/02 03:51:42;;;;;;;19.02;13.02;;;13.70;99.90;;;;;;5025472;28;20072;-78
2022/06/02 03:54:14;;;;;;;18.83;13.20;;;13.70;99.90;;;;;;5031104;28;20550;-78
2022/06/02 03:56:48;;;;;;;18.97;13.47;;;13.70;99.90;;;;;;5029858;28;20029;-78
2022/06/02 03:59:24;;;;;;;26.70;18.13;;;13.80;99.90;;;;;;5029830;28;20304;-78
2022/06/02 04:02:10;;;;;;;26.33;18.80;;;13.70;99.90;;;;;;5029600;28;20458;-80
2022/06/02 04:04:39;;;;;;;24.20;17.77;;;13.70;99.90;;;;;;5029670;28;20028;-79
2022/06/02 04:07:11;;;;;;;20.38;15.80;;;13.60;99.90;;;;;;5029870;28;20026;-78
2022/06/02 04:10:08;;;;;;;22.90;16.42;;;13.60;99.90;;;;;;5029368;28;20578;-78
2022/06/02 04:15:51;;;;;;;19.87;14.60;;;13.60;99.90;;;;;;5031114;28;20033;-78
2022/06/02 04:18:32;;;;;;;20.13;14.85;;;13.70;99.90;;;;;;5030538;28;20321;-78
2022/06/02 04:21:19;;;;;;;14.80;13.07;;;13.70;99.90;;;;;;5012566;28;20087;-77
2022/06/02 04:23:49;;;;;;;19.42;14.93;;;13.80;99.90;;;;;;5009893;28;20041;-79
2022/06/02 04:26:47;;;;;;;18.25;15.35;;;13.90;99.90;;;;;;5009401;28;20054;-80
2022/06/02 04:29:36;;;;;;;21.88;16.73;;;14.00;99.90;;;;;;5009703;28;20030;-80
2022/06/02 04:32:26;;;;;;;22.75;16.83;;;14.00;99.90;;;;;;5009587;28;20155;-80
2022/06/02 04:34:55;;;;;;;23.00;17.40;;;14.00;99.90;;;;;;5009550;28;20395;-78
2022/06/02 04:37:45;;;;;;;20.25;15.68;;;14.10;99.90;;;;;;5009580;28;20034;-79
2022/06/02 04:40:23;;;;;;;18.23;15.00;;;14.20;99.90;;;;;;5010724;28;20049;-79
2022/06/02 04:43:16;;;;;;;17.50;14.80;;;14.20;99.90;;;;;;5010812;28;20094;-80
2022/06/02 04:46:11;;;;;;;17.30;12.73;;;14.20;99.90;;;;;;5009346;28;20499;-80
2022/06/02 04:49:04;;;;;;;15.48;13.27;;;14.30;99.90;;;;;;5008214;28;20038;-79
2022/06/02 04:51:34;;;;;;;18.08;13.20;;;14.40;99.90;;;;;;5036673;28;20390;-78
2022/06/02 04:54:12;;;;;;;15.00;11.98;;;14.50;99.90;;;;;;5009214;28;20078;-79
2022/06/02 04:56:58;;;;;;;12.32;10.80;;;14.50;99.90;;;;;;5009264;28;20646;-78
2022/06/02 04:59:49;;;;;;;12.82;11.52;;;14.50;99.90;;;;;;5010533;28;20030;-79
2022/06/02 05:02:29;;;;;;;13.60;10.48;;;14.60;99.90;;;;;;5010438;28;20510;-80
2022/06/02 05:05:04;;;;;;;12.82;11.10;;;14.60;99.90;;;;;;5009075;28;20443;-78
2022/06/02 05:07:54;;;;;;;15.30;13.00;;;14.60;99.90;;;;;;5009058;28;20026;-78
2022/06/02 05:10:41;;;;;;;16.98;12.80;;;14.80;99.90;;;;;;5008861;28;20030;-77
2022/06/02 05:13:43;;;;;;;14.73;11.10;;;14.90;99.90;;;;;;5010295;28;20032;-77
2022/06/02 05:16:27;;;;;;;13.35;11.55;;;14.90;99.90;;;;;;5010159;28;20104;-76
2022/06/02 05:19:13;;;;;;;14.52;11.27;;;14.90;99.90;;;;;;5010251;28;20494;-76
2022/06/02 05:22:02;;;;;;;13.57;11.07;;;15.00;99.90;;;;;;5030821;28;20032;-78
2022/06/02 05:24:54;;;;;;;14.57;11.73;;;15.00;99.90;;;;;;5028244;28;20075;-77
2022/06/02 05:27:56;;;;;;;13.18;11.85;;;15.00;99.90;;;;;;5037767;28;20057;-76
2022/06/02 05:30:25;;;;;;;13.95;11.48;;;15.00;99.90;;;;;;5028274;28;20500;-76
2022/06/02 05:33:02;;;;;;;10.55;9.05;;;15.00;99.90;;;;;;5028495;28;20442;-79
2022/06/02 05:36:04;;;;;;;10.38;9.30;;;15.00;99.90;;;;;;5029837;28;20386;-76
2022/06/02 05:38:36;;;;;;;12.90;9.93;;;15.10;99.90;;;;;;5029540;28;20029;-77
2022/06/02 05:41:04;;;;;;;12.25;10.98;;;15.10;99.90;;;;;;5028264;28;20116;-77
2022/06/02 05:43:57;;;;;;;11.10;9.90;;;15.20;99.90;;;;;;5028374;28;20398;-78
2022/06/02 05:46:47;;;;;;;12.35;10.57;;;15.40;99.90;;;;;;5027922;28;20441;-80
2022/06/02 05:49:41;;;;;;;10.93;9.00;;;15.50;99.90;;;;;;5027078;28;20052;-78
2022/06/02 05:52:30;;;;;;;10.13;8.05;;;15.50;99.90;;;;;;5009731;28;20569;-77
2022/06/02 05:55:24;;;;;;;9.63;8.73;;;15.60;99.90;;;;;;5009463;28;20506;-79
2022/06/02 05:58:03;;;;;;;10.70;9.60;;;15.60;99.90;;;;;;5009699;28;20030;-79
2022/06/02 06:01:39;;;;;;;10.32;9.02;;;15.50;99.90;;;;;;5009754;28;20121;-79
2022/06/02 06:04:29;;;;;;;12.10;9.13;;;15.70;99.90;;;;;;5338162;22;20049;-76
2022/06/02 06:07:02;;;;;;;11.13;9.55;;;15.70;99.90;;;;;;5069656;28;20029;-77
2022/06/02 06:09:46;;;;;;;;;;;15.80;99.90;;;;;;5074522;28;20036;-77
2022/06/02 06:12:34;;;;;;;12.80;9.10;;;15.80;99.90;;;;;;5073922;28;19905;-77
2022/06/02 06:15:09;;;;;;;11.57;8.75;;;15.90;99.90;;;;;;5069782;28;20021;-77
2022/06/02 06:18:03;;;;;;;9.68;8.68;;;16.00;99.90;;;;;;5054169;28;20032;-78
2022/06/02 06:20:50;;;;;;;11.00;8.73;;;16.00;99.90;;;;;;5053615;28;20494;-77
2022/06/02 06:23:40;;;;;;;9.40;8.35;;;16.10;99.90;;;;;;5055223;28;20025;-77
2022/06/02 06:26:15;;;;;;;9.15;8.25;;;16.20;99.90;;;;;;5053541;28;20498;-78
2022/06/02 06:29:07;;;;;;;9.90;8.90;;;16.30;99.90;;;;;;5053736;28;20384;-78
2022/06/02 06:31:42;;;;;;;10.73;7.93;;;16.50;99.90;;;;;;5053747;28;20457;-80
2022/06/02 06:34:46;;;;;;;7.45;6.75;;;16.60;99.90;;;;;;5056727;28;20059;-80
2022/06/02 06:37:17;;;;;;;;;;;16.70;99.90;;;;;;5075356;28;20024;-80
2022/06/02 06:40:16;;;;;;;6.63;6.03;;;16.90;99.90;;;;;;5073563;28;19905;-79
2022/06/02 06:42:53;;;;;;;6.97;6.13;;;16.80;99.90;;;;;;5073946;28;20047;-81
2022/06/02 06:45:23;;;;;;;5.78;5.18;;;17.00;99.90;;;;;;5073300;28;20024;-79
2022/06/02 06:47:57;;;;;;;5.80;5.25;;;16.90;99.90;;;;;;5074699;28;20017;-80
2022/06/02 06:50:29;;;;;;;6.55;5.95;;;17.10;99.90;;;;;;5063916;28;20024;-80
2022/06/02 06:53:26;;;;;;;6.82;6.13;;;17.20;99.90;;;;;;5053041;28;20018;-80
2022/06/02 06:56:13;;;;;;;6.78;6.07;;;17.30;99.90;;;;;;5053051;28;20042;-79
2022/06/02 06:59:01;;;;;;;9.15;6.47;;;17.40;99.90;;;;;;5054545;28;20116;-80
2022/06/02 07:01:32;;;;;;;11.25;7.55;;;17.50;99.90;;;;;;5052673;28;20064;-81
2022/06/02 07:04:08;;;;;;;8.30;7.43;;;17.50;99.90;;;;;;5051860;28;20049;-81
2022/06/02 07:07:07;;;;;;;10.15;9.10;;;17.40;99.90;;;;;;5053499;28;20029;-80
2022/06/02 07:09:32;;;;;;;8.07;7.28;;;17.20;99.90;;;;;;5052817;28;20044;-80
2022/06/02 07:15:39;;;;;;;8.65;7.75;;;17.30;99.90;;;;;;5052438;28;20086;-80
2022/06/02 07:18:23;;;;;;;11.95;7.95;;;17.60;99.90;;;;;;5052233;28;20033;-81
2022/06/02 07:21:22;;;;;;;12.02;7.30;;;17.70;99.90;;;;;;5054042;28;20025;-79
2022/06/02 07:24:03;;;;;;;8.38;6.88;;;17.90;99.90;;;;;;5049620;28;20037;-79
2022/06/02 07:27:01;;;;;;;9.70;8.32;;;17.80;99.90;;;;;;5054429;28;20024;-81
2022/06/02 07:29:57;;;;;;;7.57;6.20;;;17.70;99.90;;;;;;5005002;28;20585;-80
2022/06/02 07:32:50;;;;;;;6.68;5.95;;;17.70;99.90;;;;;;5053096;28;20475;-80
2022/06/02 07:35:40;;;;;;;7.80;6.03;;;17.80;99.90;;;;;;5052994;28;20017;-80
2022/06/02 07:38:24;;;;;;;7.18;5.85;;;18.00;99.90;;;;;;5054244;28;20059;-80
2022/06/02 07:41:02;;;;;;;8.13;4.43;;;18.10;99.90;;;;;;5053001;28;20116;-80
2022/06/02 07:44:01;;;;;;;6.50;4.90;;;18.30;99.90;;;;;;5052899;28;20025;-80
2022/06/02 07:47:00;;;;;;;4.88;4.03;;;18.60;99.90;;;;;;5054071;28;20060;-80
2022/06/02 07:49:37;;;;;;;5.05;4.60;;;18.60;99.90;;;;;;5055456;28;20471;-80
2022/06/02 07:52:40;;;;;;;5.40;4.90;;;18.30;99.90;;;;;;5072716;28;20581;-80
2022/06/02 07:55:12;;;;;;;;;;;17.70;99.90;;;;;;5073071;28;20381;-81
2022/06/02 07:57:56;;;;;;;8.80;6.32;;;17.10;99.90;;;;;;5072476;28;19908;-80
2022/06/02 08:00:27;;;;;;;7.90;7.10;;;16.80;99.90;;;;;;5072458;28;20060;-81
2022/06/02 08:02:56;;;;;;;14.25;8.38;;;16.20;99.90;;;;;;5072455;28;20020;-80
2022/06/02 08:05:44;;;;;;;8.98;8.07;;;16.00;99.90;;;;;;5073673;28;20052;-80
2022/06/02 08:08:37;;;;;;;9.90;8.75;;;16.20;99.90;;;;;;5072227;28;20078;-80
2022/06/02 08:11:21;;;;;;;10.23;7.43;;;16.60;99.90;;;;;;5062174;28;20119;-81
2022/06/02 08:14:14;;;;;;;7.25;6.55;;;17.10;99.90;;;;;;5072360;28;20115;-81
2022/06/02 08:17:13;;;;;;;8.15;7.07;;;17.20;99.90;;;;;;5073647;28;20120;-80
2022/06/02 08:20:05;;;;;;;7.05;6.35;;;16.70;97.60;;;;;;5066032;28;20042;-80
2022/06/02 08:22:55;;;;;;;10.35;6.60;;;16.10;99.90;;;;;;5051990;28;20091;-81
2022/06/02 08:25:25;;;;;;;5.80;5.20;;;15.90;99.20;;;;;;5052015;28;20029;-81
2022/06/02 08:28:06;;;;;;;9.25;4.78;;;15.70;96.90;;;;;;5052201;28;20105;-81
2022/06/02 08:30:46;;;;;;;7.50;5.43;;;15.90;97.10;;;;;;5052014;28;20045;-81
2022/06/02 08:33:48;;;;;;;9.45;5.55;;;16.10;94.40;;;;;;5051778;28;20209;-81
2022/06/02 08:36:18;;;;;;;9.68;5.60;;;16.10;99.60;;;;;;5052276;28;20025;-80
2022/06/02 08:38:50;;;;;;;6.03;4.80;;;15.90;99.10;;;;;;5053197;28;20025;-80
2022/06/02 08:42:03;;;;;;;7.40;4.90;;;15.90;96.20;;;;;;5052904;28;20031;-79
2022/06/02 08:44:28;;;;;;;5.22;4.55;;;16.20;95.90;;;;;;5051761;28;20021;-80
2022/06/02 08:47:12;;;;;;;6.15;4.25;;;16.50;91.80;;;;;;5051714;28;20025;-81
2022/06/02 08:49:40;;;;;;;4.60;4.20;;;16.80;88.90;;;;;;5056193;28;20040;-81
2022/06/02 08:52:57;;;;;;;6.57;4.05;;;17.10;90.20;;;;;;5071802;28;20028;-81
2022/06/02 08:55:29;;;;;;;4.32;4.00;;;17.20;80.90;;;;;;5071518;28;20029;-81
2022/06/02 08:58:36;;;;;;;5.00;3.42;;;17.40;81.70;;;;;;5072801;28;20534;-81
2022/06/02 09:01:01;;;;;;;5.68;4.45;;;17.60;80.90;;;;;;5071549;28;20433;-81
2022/06/02 09:04:05;;;;;;;5.25;4.45;;;17.50;80.10;;;;;;5071231;28;20032;-81
2022/06/02 09:07:05;;;;;;;4.97;3.90;;;17.70;82.80;;;;;;5072760;28;20063;-81
2022/06/02 09:09:42;;;;;;;4.85;3.97;;;17.80;76.70;;;;;;5072556;28;20131;-80
2022/06/02 09:12:22;;;;;;;4.15;3.78;;;17.90;78.20;;;;;;5072887;28;20498;-81
2022/06/02 09:15:06;;;;;;;5.60;3.88;;;17.80;84.20;;;;;;5071598;28;20028;-81
2022/06/02 09:18:09;;;;;;;4.57;4.07;;;17.70;83.00;;;;;;5072664;28;20039;-81
2022/06/02 09:20:44;;;;;;;5.55;3.75;;;17.80;80.20;;;;;;5055813;28;20109;-81
2022/06/02 09:23:15;;;;;;;9.88;3.70;;;17.80;82.00;;;;;;5051318;28;20029;-80
2022/06/02 09:26:00;;;;;;;4.47;4.10;;;18.00;81.80;;;;;;5051367;28;20475;-80
2022/06/02 09:28:49;;;;;;;4.65;3.90;;;18.10;76.70;;;;;;5051193;28;20465;-81
2022/06/02 09:32:00;;;;;;;7.13;3.53;;;18.10;76.40;;;;;;5051204;28;20371;-81
2022/06/02 09:34:53;;;;;;;4.72;4.32;;;18.40;75.20;;;;;;5063163;28;20035;-82
2022/06/02 09:37:46;;;;;;;4.38;3.95;;;17.80;75.80;;;;;;5056407;28;20051;-81
2022/06/02 09:40:11;;;;;;;;;;;17.70;76.60;;;;;;5055364;28;20253;-81
2022/06/02 09:42:52;;;;;;;4.63;3.40;;;17.80;79.90;;;;;;5055127;28;19960;-81
2022/06/02 09:45:44;;;;;;;4.47;3.75;;;17.70;79.40;;;;;;5060224;28;20044;-81
2022/06/02 09:48:35;;;;;;;4.07;3.75;;;17.60;80.00;;;;;;5090702;28;20025;-81
2022/06/02 09:51:28;;;;;;;4.47;4.05;;;17.20;80.70;;;;;;5059463;28;20066;-80
2022/06/02 09:54:29;;;;;;;5.68;4.60;;;17.20;80.10;;;;;;5054756;28;20497;-80
2022/06/02 09:57:03;;;;;;;3.70;3.40;;;16.90;80.30;;;;;;5054929;28;20020;-79
2022/06/02 09:59:28;;;;;;;4.18;3.88;;;17.00;80.30;;;;;;5067457;28;20032;-80
2022/06/02 10:02:34;;;;;;;4.50;4.10;;;17.20;79.60;;;;;;5074661;28;20024;-80
2022/06/02 10:05:22;;;;;;;4.35;4.03;;;17.50;77.80;;;;;;5074532;28;20052;-80
2022/06/02 10:08:24;;;;;;;4.20;3.80;;;17.80;78.70;;;;;;5076110;28;20051;-81
2022/06/02 10:10:55;;;;;;;4.63;4.22;;;18.30;76.40;;;;;;5075653;28;20126;-81
2022/06/02 10:13:48;;;;;;;6.37;4.10;;;18.30;73.10;;;;;;5076066;28;20028;-82
2022/06/02 10:16:27;;;;;;;4.55;4.22;;;18.80;70.60;;;;;;5074388;28;20020;-81
2022/06/02 10:19:08;;;;;;;5.80;4.00;;;19.20;71.70;;;;;;5068294;28;20120;-81
2022/06/02 10:21:54;;;;;;;4.25;3.88;;;19.10;69.40;;;;;;5075459;28;20120;-81
2022/06/02 10:24:37;;;;;;;4.10;3.80;;;19.60;71.20;;;;;;5090380;28;20146;-81
2022/06/02 10:27:12;;;;;;;3.90;3.60;;;19.90;68.90;;;;;;5074262;28;20426;-81
2022/06/02 10:30:06;;;;;;;4.05;3.75;;;20.20;67.70;;;;;;5075221;28;20040;-82
2022/06/02 10:32:56;;;;;;;3.83;3.58;;;19.90;66.30;;;;;;5074187;28;20024;-82
2022/06/02 10:35:31;;;;;;;3.35;3.00;;;19.70;63.90;;;;;;5074071;28;20486;-81
2022/06/02 10:38:26;;;;;;;4.40;4.03;;;19.70;65.30;;;;;;5075458;28;20441;-76
2022/06/02 10:41:13;;;;;;;3.95;3.38;;;19.60;64.70;;;;;;5031890;28;20036;-79
2022/06/02 10:43:59;;;;;;;6.43;3.28;;;19.80;62.30;;;;;;5073305;28;20032;-79
2022/06/02 10:47:11;;;;;;;3.40;3.10;;;19.90;59.90;;;;;;5074726;28;20040;-76
2022/06/02 10:50:34;;;;;;;3.97;2.92;;;20.00;59.70;;;;;;5070884;28;20048;-79
2022/06/02 10:53:17;;;;;;;3.90;3.40;;;19.80;60.00;;;;;;4993917;28;20038;-76
2022/06/02 10:56:01;;;;;;;4.90;3.40;;;20.00;60.60;;;;;;5063257;28;20769;-78
2022/06/02 10:58:46;;;;;;;3.42;2.42;;;20.40;59.90;;;;;;5053712;28;20483;-79
2022/06/02 11:01:34;;;;;;;3.08;2.88;;;20.70;59.20;;;;;;5054706;28;20056;-79
2022/06/02 11:04:40;;;;;;;3.13;2.92;;;20.90;59.70;;;;;;5054799;28;20048;-79
2022/06/02 11:07:32;;;;;;;2.92;2.72;;;20.60;57.30;;;;;;5053555;28;20025;-78
2022/06/02 11:10:24;;;;;;;2.90;2.70;;;20.70;57.30;;;;;;5053261;28;20039;-78
2022/06/02 11:12:52;;;;;;;4.50;3.03;;;20.70;58.70;;;;;;5054844;28;20573;-79
2022/06/02 11:15:20;;;;;;;2.60;2.40;;;20.90;60.00;;;;;;5053245;28;20029;-79
2022/06/02 11:18:07;;;;;;;2.97;2.78;;;20.70;57.40;;;;;;5053328;28;20045;-79
2022/06/02 11:21:03;;;;;;;2.50;2.30;;;20.70;58.20;;;;;;5070144;28;20025;-79
2022/06/02 11:23:35;;;;;;;2.53;1.80;;;20.70;57.90;;;;;;5073168;28;20105;-80
2022/06/02 11:26:03;;;;;;;2.28;1.83;;;20.70;57.00;;;;;;5074101;28;20040;-78
2022/06/02 11:28:50;;;;;;;1.77;1.67;;;20.70;54.50;;;;;;5073914;28;20105;-77
2022/06/02 11:31:59;;;;;;;1.95;1.85;;;20.50;55.30;;;;;;5072852;28;20024;-77
2022/06/02 11:34:34;;;;;;;1.80;1.70;;;20.30;54.30;;;;;;5074104;28;20039;-79
2022/06/02 11:37:21;;;;;;;2.22;2.03;;;20.40;55.20;;;;;;5074107;28;20028;-77
2022/06/02 11:40:06;;;;;;;2.72;1.80;;;20.40;54.90;;;;;;5071079;28;20112;-77
2022/06/02 11:43:00;;;;;;;2.85;1.90;;;20.60;56.00;;;;;;5074144;28;20025;-77
2022/06/02 11:45:48;;;;;;;3.08;1.88;;;20.20;53.60;;;;;;5072545;28;20040;-79
2022/06/02 11:48:32;;;;;;;2.30;1.80;;;20.10;54.20;;;;;;5071863;28;20024;-79
2022/06/02 11:51:28;;;;;;;2.20;2.00;;;20.60;55.50;;;;;;5056182;28;20463;-79
2022/06/02 11:54:12;;;;;;;2.03;1.70;;;20.70;53.90;;;;;;5052060;28;20036;-79
2022/06/02 11:57:15;;;;;;;1.67;1.60;;;20.80;55.00;;;;;;5051804;28;20108;-77
2022/06/02 11:59:41;;;;;;;3.67;1.95;;;20.60;54.10;;;;;;5052322;28;20025;-79
2022/06/02 12:02:31;;;;;;;2.25;1.90;;;20.90;54.60;;;;;;5052482;28;20033;-79
2022/06/02 12:05:27;;;;;;;3.22;1.83;;;21.20;54.90;;;;;;5052031;28;20106;-79
2022/06/02 12:08:29;;;;;;;4.28;1.60;;;21.40;52.10;;;;;;5052617;28;20509;-77
2022/06/02 12:11:13;;;;;;;2.70;2.50;;;21.50;53.40;;;;;;5053698;28;20052;-77
2022/06/02 12:13:56;;;;;;;4.43;1.77;;;21.70;52.20;;;;;;5053703;28;20032;-79
2022/06/02 12:17:03;;;;;;;1.95;1.80;;;20.90;51.70;;;;;;5053473;28;20086;-79
2022/06/02 12:19:48;;;;;;;3.28;1.90;;;20.60;51.60;;;;;;5060966;28;20111;-77
2022/06/02 12:22:53;;;;;;;1.73;1.63;;;20.70;52.00;;;;;;5072008;28;20085;-77
2022/06/02 12:25:22;;;;;;;2.17;1.40;;;20.80;50.70;;;;;;5089162;28;20070;-77
2022/06/02 12:27:57;;;;;;;3.65;3.35;;;21.20;51.10;;;;;;5071986;28;20035;-79
2022/06/02 12:30:43;;;;;;;2.67;2.40;;;21.60;52.90;;;;;;5073162;28;20409;-79
2022/06/02 12:33:27;;;;;;;1.98;1.88;;;21.60;52.30;;;;;;5072063;28;20482;-79
2022/06/02 12:36:27;;;;;;;1.95;1.85;;;21.70;51.40;;;;;;5088768;28;20119;-78
2022/06/02 12:39:25;;;;;;;2.83;1.77;;;21.60;50.10;;;;;;5071852;28;20036;-77
2022/06/02 12:42:11;;;;;;;3.97;3.63;;;21.40;48.80;;;;;;5038922;28;20496;-79
2022/06/02 12:45:07;;;;;;;7.13;5.97;;;21.70;49.90;;;;;;5071969;28;20081;-78
2022/06/02 12:48:00;;;;;;;9.77;6.28;;;21.80;49.60;;;;;;5073094;28;20033;-78
2022/06/02 12:50:53;;;;;;;9.85;5.00;;;21.70;50.60;;;;;;5060129;28;20561;-78
2022/06/02 12:53:46;;;;;;;;;;;21.30;50.30;;;;;;5053533;28;20100;-79
2022/06/02 12:56:52;;;;;;;2.25;1.35;;;21.20;48.30;;;;;;5052918;28;19905;-80
2022/06/02 12:59:29;;;;;;;1.60;1.50;;;21.40;48.60;;;;;;5030484;28;20036;-80
2022/06/02 13:02:29;;;;;;;1.73;1.63;;;21.30;48.80;;;;;;5052994;28;20032;-78
2022/06/02 13:05:03;;;;;;;2.75;1.67;;;21.30;50.20;;;;;;5052277;28;20049;-79
2022/06/02 13:08:03;;;;;;;1.80;1.60;;;21.30;49.20;;;;;;5050463;28;20021;-79
2022/06/02 13:11:02;;;;;;;1.50;1.38;;;21.10;51.00;;;;;;5052002;28;20037;-77
2022/06/02 13:13:52;;;;;;;2.25;1.70;;;21.10;50.30;;;;;;5056792;28;20013;-78
2022/06/02 13:16:40;;;;;;;3.67;1.77;;;21.10;50.10;;;;;;5056554;28;20029;-78
2022/06/02 13:19:36;;;;;;;2.25;1.75;;;21.30;49.30;;;;;;5061541;28;20401;-78
2022/06/02 13:22:05;;;;;;;2.63;1.88;;;21.00;49.30;;;;;;5092066;28;20065;-76
2022/06/02 13:25:05;;;;;;;3.45;2.60;;;21.20;49.30;;;;;;5075482;28;20025;-77
2022/06/02 13:27:55;;;;;;;3.10;1.67;;;21.40;49.70;;;;;;5076552;28;20024;-79
2022/06/02 13:30:57;;;;;;;3.05;2.17;;;21.70;48.00;;;;;;5076231;28;20486;-79
2022/06/02 13:33:56;;;;;;;4.40;2.58;;;22.10;48.80;;;;;;5076477;28;20074;-78
2022/06/02 13:36:40;;;;;;;3.22;2.53;;;22.40;49.10;;;;;;5076316;28;20036;-78
2022/06/02 13:39:27;;;;;;;3.80;2.00;;;22.60;49.40;;;;;;5076445;28;20020;-78
2022/06/02 13:42:14;;;;;;;1.80;1.70;;;22.90;48.30;;;;;;5076220;28;20031;-79
2022/06/02 13:45:04;;;;;;;6.53;3.15;;;22.90;46.80;;;;;;5076457;28;20032;-78
2022/06/02 13:48:07;;;;;;;5.13;3.30;;;22.90;47.20;;;;;;5074923;28;20033;-78
2022/06/02 13:50:50;;;;;;;;;;;23.10;44.90;;;;;;5076563;28;20517;-78
2022/06/02 13:53:35;;;;;;;3.92;2.80;;;22.90;40.70;;;;;;5074930;28;19912;-78
2022/06/02 13:59:30;;;;;;;3.05;2.53;;;22.40;48.20;;;;;;5056010;28;20120;-77
2022/06/02 14:02:29;;;;;;;2.45;2.25;;;22.50;48.00;;;;;;5055922;28;20474;-77
2022/06/02 14:05:28;;;;;;;3.40;2.33;;;22.60;47.70;;;;;;5055526;28;20041;-77
2022/06/02 14:08:21;;;;;;;1.60;1.50;;;22.80;47.60;;;;;;5055841;28;20028;-77
2022/06/02 14:11:00;;;;;;;3.22;1.55;;;22.70;45.40;;;;;;5054495;28;20390;-77
2022/06/02 14:13:58;;;;;;;1.80;1.55;;;22.70;44.00;;;;;;5055693;28;20081;-78
2022/06/02 14:16:32;;;;;;;3.55;1.50;;;22.40;43.50;;;;;;5011511;28;20041;-78
2022/06/02 14:19:21;;;;;;;1.50;1.40;;;22.30;44.10;;;;;;5058000;28;20114;-80
2022/06/02 14:22:08;;;;;;;2.30;1.27;;;22.20;43.20;;;;;;5067427;28;20025;-79
2022/06/02 14:24:43;;;;;;;1.67;1.33;;;22.20;45.10;;;;;;5059491;28;20035;-80
2022/06/02 14:27:11;;;;;;;1.33;1.25;;;22.30;46.60;;;;;;5053440;28;20072;-80
2022/06/02 14:30:00;;;;;;;2.15;1.83;;;22.20;45.90;;;;;;5060843;28;20041;-78
2022/06/02 14:32:39;;;;;;;1.98;1.77;;;22.20;44.50;;;;;;5052864;28;20060;-78
2022/06/02 14:35:30;;;;;;;1.08;0.93;;;22.10;42.00;;;;;;5071665;28;20497;-82